»·PEaware :: UAL1900 KSFO-KSAN

UAL1900 :: KSFO-KSAN

FLIGHT INFORMATION

Flight Status: Arrived
Operator:
United Airlines
More flights by this operator :: More flights under this callsign
Pilot: Saso K. (7898)
Aircraft: BOEING 737-300
(B733)
More flights by this aircraft type
Origin: KSFO San Francisco Intl
United States
Destination: KSAN San Diego Intl-Lindbergh
United States
More flights between these airports :: More routes between these airports
Route: +OFFSH1 MCKEY LAX BAYVU5
File this flight plan on PilotEdge
Remarks:
Altitude:
(Current/Filed)
35,000ft
Speed:
(Current/Filed)
413kts
Departed: 16-Dec-16 01:43 PM
Arrived: 16-Dec-16 03:33 PM
Distance/Time
Traveled:
387nm/1:50
Distance/Time
To Go:
Arrived

Flight Plot

Page will automatically refresh every two minutes.


Map Options




Map Legend


Flown Route
Filed Route
Departure Airport
Arrival Airport
Navaid (VOR, NDB)
Fix

Horizontal Profiles

Position Reports

Time Latitude Longitude Heading Altitude Ground
Speed
16-Dec-16 13:02 37.618640 -122.388046 158 30ft 0kts
16-Dec-16 13:03 37.618640 -122.388046 158 30ft 0kts
16-Dec-16 13:04 37.618640 -122.388046 158 30ft 0kts
16-Dec-16 13:05 37.618640 -122.388046 158 30ft 0kts
16-Dec-16 13:06 37.618640 -122.388046 158 30ft 0kts
16-Dec-16 13:07 37.618640 -122.388046 158 30ft 0kts
16-Dec-16 13:08 37.618640 -122.388046 158 30ft 0kts
16-Dec-16 13:09 37.618640 -122.388046 158 30ft 0kts
16-Dec-16 13:10 37.618640 -122.388046 158 30ft 0kts
16-Dec-16 13:11 37.618640 -122.388046 158 30ft 0kts
16-Dec-16 13:12 37.618640 -122.388046 158 30ft 0kts
16-Dec-16 13:13 37.618640 -122.388046 158 30ft 0kts
16-Dec-16 13:14 37.618640 -122.388046 158 30ft 0kts
16-Dec-16 13:15 37.618640 -122.388046 158 30ft 0kts
16-Dec-16 13:16 37.618640 -122.388046 158 30ft 0kts
16-Dec-16 13:17 37.618640 -122.388046 158 30ft 0kts
16-Dec-16 13:18 37.618640 -122.388046 158 30ft 0kts
16-Dec-16 13:19 37.618640 -122.388046 158 30ft 0kts
16-Dec-16 13:20 37.618640 -122.388046 158 30ft 0kts
16-Dec-16 13:21 37.618849 -122.388152 145 30ft 1kts
16-Dec-16 13:22 37.619077 -122.388854 110 30ft 2kts
16-Dec-16 13:23 37.619159 -122.389226 335 30ft 1kts
16-Dec-16 13:24 37.619458 -122.389872 299 30ft 2kts
16-Dec-16 13:25 37.619700 -122.390418 297 30ft 0kts
16-Dec-16 13:26 37.619700 -122.390418 297 30ft 0kts
16-Dec-16 13:27 37.619700 -122.390418 297 30ft 0kts
16-Dec-16 13:28 37.619999 -122.391193 296 30ft 6kts
16-Dec-16 13:29 37.622455 -122.390142 72 28ft 16kts
16-Dec-16 13:30 37.620556 -122.384140 117 30ft 19kts
16-Dec-16 13:31 37.618034 -122.377838 110 26ft 22kts
16-Dec-16 13:32 37.615429 -122.370900 118 10ft 22kts
16-Dec-16 13:33 37.612399 -122.364797 118 7ft 19kts
16-Dec-16 13:34 37.610588 -122.359476 66 7ft 8kts
16-Dec-16 13:35 37.612742 -122.360821 297 7ft 48kts
16-Dec-16 13:36 37.622318 -122.383499 298 137ft 123kts
16-Dec-16 13:38 37.618640 -122.388046 158 30ft 0kts
16-Dec-16 13:39 37.618640 -122.388046 158 30ft 0kts
16-Dec-16 13:40 37.618640 -122.388046 158 30ft 0kts
16-Dec-16 13:41 37.618640 -122.388046 158 30ft 0kts
16-Dec-16 13:42 37.618640 -122.388046 158 30ft 0kts
16-Dec-16 13:43 37.618640 -122.388046 158 30ft 0kts
16-Dec-16 13:44 37.618677 -122.388065 158 30ft 2kts
16-Dec-16 13:45 37.619016 -122.388617 108 30ft 2kts
16-Dec-16 13:46 37.619052 -122.389206 20 30ft 0kts
16-Dec-16 13:47 37.619218 -122.389340 295 30ft 0kts
16-Dec-16 13:48 37.619504 -122.390019 298 30ft 7kts
16-Dec-16 13:49 37.620071 -122.391376 297 30ft 0kts
16-Dec-16 13:50 37.620071 -122.391376 297 30ft 0kts
16-Dec-16 13:51 37.620292 -122.391911 304 29ft 6kts
16-Dec-16 13:52 37.622501 -122.390029 73 28ft 15kts
16-Dec-16 13:53 37.620778 -122.384683 117 30ft 19kts
16-Dec-16 13:54 37.618285 -122.378667 112 27ft 19kts
16-Dec-16 13:55 37.615891 -122.372007 117 13ft 18kts
16-Dec-16 13:56 37.613413 -122.367221 118 8ft 19kts
16-Dec-16 13:57 37.611271 -122.362112 118 7ft 13kts
16-Dec-16 13:58 37.610552 -122.360394 112 7ft 9kts
16-Dec-16 13:59 37.610940 -122.359043 28 7ft 0kts
16-Dec-16 14:00 37.611908 -122.358870 303 7ft 10kts
16-Dec-16 14:01 37.623046 -122.384822 297 487ft 149kts
16-Dec-16 14:02 37.641993 -122.430789 293 3007ft 155kts
16-Dec-16 14:03 37.665397 -122.485725 297 4944ft 206kts
16-Dec-16 14:04 37.640084 -122.550211 216 6897ft 272kts
16-Dec-16 14:05 37.577716 -122.602293 219 9818ft 283kts
16-Dec-16 14:06 37.509018 -122.661222 218 11623ft 333kts
16-Dec-16 14:07 37.421756 -122.686542 172 14364ft 369kts
16-Dec-16 14:08 37.321243 -122.660835 173 16920ft 384kts
16-Dec-16 14:09 37.217033 -122.634768 174 18947ft 401kts
16-Dec-16 14:10 37.111647 -122.608474 175 21217ft 408kts
16-Dec-16 14:11 37.003865 -122.581702 178 22998ft 425kts
16-Dec-16 14:12 36.901597 -122.555124 178 24618ft 438kts
16-Dec-16 14:13 36.791254 -122.526182 179 26283ft 447kts
16-Dec-16 14:14 36.690333 -122.500010 180 27676ft 454kts
16-Dec-16 14:15 36.583224 -122.472239 181 29489ft 449kts
16-Dec-16 14:16 36.477879 -122.445083 182 31286ft 441kts
16-Dec-16 14:17 36.380795 -122.389236 135 32638ft 510kts
16-Dec-16 14:18 36.335659 -122.305729 137 33297ft 513kts
16-Dec-16 14:19 36.260078 -122.193454 142 34794ft 491kts
16-Dec-16 14:20 36.185377 -122.085202 141 35086ft 499kts
16-Dec-16 14:21 36.111471 -121.977946 141 35058ft 492kts
16-Dec-16 14:22 36.038822 -121.873040 141 35067ft 495kts
16-Dec-16 14:23 35.963654 -121.764753 141 35065ft 495kts
16-Dec-16 14:24 35.890233 -121.659338 141 35062ft 494kts
16-Dec-16 14:25 35.811903 -121.547245 142 35046ft 494kts
16-Dec-16 14:26 35.731302 -121.432266 141 35020ft 494kts
16-Dec-16 14:27 35.663532 -121.335910 142 35013ft 494kts
16-Dec-16 14:28 35.637020 -121.298261 142 35014ft 493kts
16-Dec-16 14:29 35.557397 -121.184802 142 35012ft 494kts
16-Dec-16 14:30 35.473885 -121.066454 139 35021ft 498kts
16-Dec-16 14:31 35.398192 -120.937904 134 35019ft 505kts
16-Dec-16 14:32 35.325465 -120.809072 135 35018ft 505kts
16-Dec-16 14:33 35.252862 -120.681239 135 35017ft 505kts
16-Dec-16 14:34 35.177598 -120.549198 135 35019ft 505kts
16-Dec-16 14:35 35.108235 -120.427937 135 35020ft 505kts
16-Dec-16 14:36 35.057091 -120.338799 135 35017ft 504kts
16-Dec-16 14:37 34.993695 -120.228641 136 35018ft 505kts
16-Dec-16 14:38 34.924534 -120.108870 135 35021ft 512kts
16-Dec-16 14:39 34.870210 -120.015032 135 35007ft 516kts
16-Dec-16 14:40 34.797432 -119.889668 135 35001ft 515kts
16-Dec-16 14:41 34.719890 -119.756676 135 34969ft 515kts
16-Dec-16 14:42 34.640124 -119.620348 135 34962ft 515kts
16-Dec-16 14:43 34.558357 -119.481149 135 34968ft 515kts
16-Dec-16 14:44 34.480214 -119.348626 136 34938ft 515kts
16-Dec-16 14:45 34.447189 -119.292751 136 34928ft 513kts
16-Dec-16 14:46 34.385963 -119.189447 136 34930ft 515kts
16-Dec-16 14:47 34.306190 -119.055243 136 34918ft 514kts
16-Dec-16 14:48 34.227089 -118.922658 136 34917ft 512kts
16-Dec-16 14:49 34.150073 -118.794187 136 32951ft 526kts
16-Dec-16 14:50 34.072825 -118.665312 135 30805ft 501kts
16-Dec-16 14:51 34.006495 -118.555633 134 27868ft 507kts
16-Dec-16 14:52 33.929797 -118.431211 144 24313ft 492kts
16-Dec-16 14:53 33.851340 -118.365730 158 23936ft 424kts
16-Dec-16 14:54 33.799966 -118.325569 159 23938ft 419kts
16-Dec-16 14:55 33.714356 -118.259359 159 24006ft 430kts
16-Dec-16 14:56 33.622109 -118.182028 147 23979ft 443kts
16-Dec-16 14:57 33.554564 -118.073506 139 23966ft 454kts
16-Dec-16 14:58 33.487510 -117.975815 138 23953ft 455kts
16-Dec-16 14:59 33.420212 -117.876381 138 23958ft 442kts
16-Dec-16 15:00 33.360063 -117.787890 138 21718ft 449kts
16-Dec-16 15:01 33.292617 -117.688664 138 19563ft 429kts
16-Dec-16 15:02 33.225914 -117.590967 137 17460ft 410kts
16-Dec-16 15:03 33.161250 -117.496460 137 15396ft 392kts
16-Dec-16 15:04 33.100036 -117.439045 154 13998ft 361kts
16-Dec-16 15:05 33.026478 -117.380413 152 12249ft 353kts
16-Dec-16 15:06 32.963367 -117.330032 152 10706ft 347kts
16-Dec-16 15:07 32.898495 -117.277468 152 10390ft 298kts
16-Dec-16 15:08 32.839957 -117.230211 152 9246ft 289kts
16-Dec-16 15:09 32.799778 -117.161011 107 7856ft 298kts
16-Dec-16 15:10 32.780160 -117.076077 107 6427ft 290kts
16-Dec-16 15:11 32.755642 -117.003068 118 6013ft 252kts
16-Dec-16 15:12 32.744643 -116.924941 101 5131ft 242kts
16-Dec-16 15:13 32.739341 -116.854707 101 4945ft 198kts
16-Dec-16 15:14 32.734960 -116.788639 100 5012ft 205kts
16-Dec-16 15:15 32.704240 -116.766667 232 4990ft 172kts
16-Dec-16 15:16 32.691554 -116.821341 251 4988ft 176kts
16-Dec-16 15:17 32.680637 -116.876398 250 4648ft 181kts
16-Dec-16 15:18 32.671748 -116.932605 268 3904ft 166kts
16-Dec-16 15:19 32.682395 -116.984603 284 3984ft 166kts
16-Dec-16 15:20 32.695286 -117.033178 283 3152ft 159kts
16-Dec-16 15:21 32.706588 -117.079471 285 1878ft 134kts
16-Dec-16 15:22 32.716177 -117.118707 287 1098ft 126kts
16-Dec-16 15:23 32.725644 -117.157206 285 520ft 125kts
16-Dec-16 15:24 32.734553 -117.193749 286 20ft 69kts
16-Dec-16 15:25 32.736022 -117.202026 193 17ft 6kts
16-Dec-16 15:26 32.733418 -117.202725 173 17ft 10kts
16-Dec-16 15:27 32.732965 -117.203587 270 17ft 0kts
16-Dec-16 15:28 32.732965 -117.203587 270 17ft 0kts
16-Dec-16 15:29 32.732965 -117.203587 270 17ft 0kts
16-Dec-16 15:30 32.732965 -117.203587 270 17ft 0kts
16-Dec-16 15:31 32.732965 -117.203587 270 17ft 0kts

Navigation Log

Ident Type
1. KSFO Airport
2. SENZY Fix
3. SEGUL Fix
4. CYPRS Fix
5. MCKEY Fix
6. LAX Navaid
7. OTISS Fix
8. HUBRD Fix
9. BAYVU Fix
10. LCOVE Fix
11. STEPN Fix
12. KLOMN Fix
13. NADDO Fix
14. KSAN Airport